Time;durP1;ratioP1;P1;durP2;ratioP2;P2;SDS_P1;SDS_P2;PMS_P1;PMS_P2;Temp;Humidity;BMP_temperature;BMP_pressure;BME280_temperature;BME280_humidity;BME280_pressure;Samples;Min_cycle;Max_cycle;Signal;HPM_P1;HPM_P2
2021/06/29 00:01:10;;;;;;;8.65;7.45;;;18.60;99.90;;;;;;6225620;28;20049;-77
2021/06/29 00:04:12;;;;;;;10.77;7.75;;;18.50;99.90;;;;;;6215832;28;20118;-77
2021/06/29 00:07:15;;;;;;;7.45;6.80;;;18.50;99.90;;;;;;6216833;28;20127;-77
2021/06/29 00:10:17;;;;;;;9.30;8.32;;;18.40;99.90;;;;;;6225556;28;20523;-76
2021/06/29 00:13:21;;;;;;;8.57;7.53;;;18.40;99.90;;;;;;6226116;28;20081;-76
2021/06/29 00:16:23;;;;;;;8.60;7.72;;;18.40;99.90;;;;;;6224826;28;20045;-77
2021/06/29 00:19:24;;;;;;;9.85;7.32;;;18.40;99.90;;;;;;6225484;28;20056;-76
2021/06/29 00:22:27;;;;;;;8.68;7.80;;;18.40;99.90;;;;;;6224939;28;20129;-76
2021/06/29 00:25:30;;;;;;;8.10;6.47;;;18.40;99.90;;;;;;6225859;28;20104;-77
2021/06/29 00:28:31;;;;;;;8.50;7.40;;;18.40;99.90;;;;;;6224689;28;20125;-76
2021/06/29 00:31:33;;;;;;;8.23;7.50;;;18.40;99.90;;;;;;6225022;28;20038;-77
2021/06/29 00:34:35;;;;;;;9.23;8.30;;;18.40;99.90;;;;;;6224800;28;20065;-77
2021/06/29 00:37:38;;;;;;;10.05;8.13;;;18.30;99.90;;;;;;6225018;28;20157;-77
2021/06/29 00:40:40;;;;;;;9.30;7.65;;;18.40;99.90;;;;;;6224724;28;20611;-76
2021/06/29 00:43:46;;;;;;;10.98;9.00;;;18.40;99.90;;;;;;6224883;28;20137;-76
2021/06/29 00:46:48;;;;;;;11.05;9.57;;;18.40;99.90;;;;;;6224762;28;20046;-76
2021/06/29 00:49:50;;;;;;;9.45;8.52;;;18.40;99.90;;;;;;6224743;28;20495;-77
2021/06/29 00:52:53;;;;;;;10.32;8.32;;;18.50;99.90;;;;;;6224892;28;20514;-77
2021/06/29 00:55:56;;;;;;;10.32;9.32;;;18.50;99.90;;;;;;6224216;28;20186;-76
2021/06/29 00:58:57;;;;;;;11.85;8.30;;;18.40;99.90;;;;;;6224387;28;20199;-76
2021/06/29 01:01:59;;;;;;;17.88;10.43;;;18.40;99.90;;;;;;6224194;28;20096;-77
2021/06/29 01:05:01;;;;;;;13.63;9.10;;;18.40;99.90;;;;;;6224762;28;20189;-76
2021/06/29 01:08:05;;;;;;;12.43;11.15;;;18.30;99.90;;;;;;6223856;28;20140;-76
2021/06/29 01:11:07;;;;;;;10.57;9.23;;;18.30;99.90;;;;;;6224041;28;20050;-76
2021/06/29 01:14:14;;;;;;;19.90;9.60;;;18.20;99.90;;;;;;6224299;28;20046;-76
2021/06/29 01:17:16;;;;;;;12.43;9.95;;;18.20;99.90;;;;;;6224277;28;20096;-76
2021/06/29 01:20:23;;;;;;;14.32;9.73;;;18.10;99.90;;;;;;6223769;28;20103;-76
2021/06/29 01:23:27;;;;;;;12.03;9.53;;;18.00;99.90;;;;;;6223632;28;20125;-76
2021/06/29 01:26:31;;;;;;;11.07;10.00;;;18.10;99.90;;;;;;6223694;28;20052;-76
2021/06/29 01:29:44;;;;;;;12.60;9.32;;;18.00;99.90;;;;;;6224526;28;20046;-76
2021/06/29 01:32:47;;;;;;;13.80;9.70;;;18.00;99.90;;;;;;6223513;28;20423;-76
2021/06/29 01:35:51;;;;;;;11.98;9.85;;;18.00;99.90;;;;;;6223305;28;20080;-76
2021/06/29 01:38:53;;;;;;;10.77;8.90;;;17.90;99.90;;;;;;6223344;28;20128;-76
2021/06/29 01:41:55;;;;;;;15.13;9.65;;;17.90;99.90;;;;;;6223892;28;20042;-77
2021/06/29 01:44:57;;;;;;;11.05;9.95;;;17.90;99.90;;;;;;6223969;28;20143;-76
2021/06/29 01:48:01;;;;;;;10.43;8.80;;;17.80;99.90;;;;;;6222699;28;20069;-77
2021/06/29 01:51:05;;;;;;;9.88;8.88;;;17.80;99.90;;;;;;6222781;28;20057;-76
2021/06/29 01:54:08;;;;;;;10.32;9.32;;;17.80;99.90;;;;;;6223180;28;20061;-76
2021/06/29 01:57:15;;;;;;;12.68;10.45;;;17.90;99.90;;;;;;6223303;28;20084;-76
2021/06/29 02:00:18;;;;;;;14.07;10.60;;;17.90;99.90;;;;;;6222689;28;20129;-77
2021/06/29 02:03:20;;;;;;;16.15;11.32;;;17.90;99.90;;;;;;6222687;28;20504;-76
2021/06/29 02:06:23;;;;;;;12.73;10.00;;;17.90;99.90;;;;;;6222784;28;20135;-76
2021/06/29 02:09:25;;;;;;;16.00;12.65;;;18.00;99.90;;;;;;6223232;28;20138;-76
2021/06/29 02:12:27;;;;;;;14.15;12.02;;;18.00;99.90;;;;;;6222424;28;20484;-76
2021/06/29 02:15:29;;;;;;;20.77;12.70;;;18.00;99.90;;;;;;6222604;28;20053;-76
2021/06/29 02:18:31;;;;;;;15.10;11.23;;;18.00;99.90;;;;;;6222370;28;20041;-76
2021/06/29 02:21:34;;;;;;;17.05;11.63;;;18.00;99.90;;;;;;6222802;28;20187;-76
2021/06/29 02:24:36;;;;;;;15.35;11.77;;;17.90;99.90;;;;;;6222458;28;20069;-76
2021/06/29 02:27:37;;;;;;;16.33;11.85;;;17.90;99.90;;;;;;6221902;28;20535;-76
2021/06/29 02:30:41;;;;;;;10.80;9.80;;;17.90;99.90;;;;;;6222256;28;20100;-76
2021/06/29 02:33:43;;;;;;;13.82;12.25;;;17.90;99.90;;;;;;6222652;28;20057;-76
2021/06/29 02:36:46;;;;;;;14.15;11.40;;;17.90;99.90;;;;;;6221969;28;20129;-77
2021/06/29 02:39:48;;;;;;;19.08;11.77;;;17.90;99.90;;;;;;6222179;28;20127;-77
2021/06/29 02:42:50;;;;;;;11.52;10.38;;;17.90;99.90;;;;;;6222172;28;20042;-76
2021/06/29 02:45:52;;;;;;;14.32;11.40;;;17.90;99.90;;;;;;6221780;28;20054;-76
2021/06/29 02:48:56;;;;;;;15.93;10.20;;;17.90;99.90;;;;;;6222740;28;20132;-76
2021/06/29 02:51:59;;;;;;;11.50;10.30;;;17.90;99.90;;;;;;6221997;28;20098;-76
2021/06/29 02:55:01;;;;;;;10.85;9.57;;;17.90;99.90;;;;;;6222165;28;20038;-76
2021/06/29 02:58:03;;;;;;;11.95;10.77;;;17.90;99.90;;;;;;6221896;28;20186;-76
2021/06/29 03:01:05;;;;;;;11.45;10.25;;;17.90;99.90;;;;;;6222085;28;20152;-76
2021/06/29 03:04:07;;;;;;;14.25;10.20;;;17.90;99.90;;;;;;6221927;28;20069;-77
2021/06/29 03:07:11;;;;;;;10.77;9.48;;;17.90;99.90;;;;;;6221541;28;20133;-77
2021/06/29 03:10:13;;;;;;;11.95;10.23;;;17.90;99.90;;;;;;6221887;28;20120;-77
2021/06/29 03:13:15;;;;;;;13.38;12.13;;;17.80;99.90;;;;;;6222404;28;20144;-77
2021/06/29 03:16:16;;;;;;;14.57;11.07;;;17.90;99.90;;;;;;6221398;28;20119;-77
2021/06/29 03:19:18;;;;;;;11.82;10.57;;;17.90;99.90;;;;;;6221519;28;20116;-77
2021/06/29 03:22:22;;;;;;;12.75;11.48;;;17.90;99.90;;;;;;6221599;28;20069;-77
2021/06/29 03:25:24;;;;;;;11.00;9.73;;;17.90;99.90;;;;;;6221774;28;20471;-77
2021/06/29 03:28:26;;;;;;;10.25;8.75;;;17.90;99.90;;;;;;6221285;28;20168;-76
2021/06/29 03:31:27;;;;;;;16.35;11.70;;;17.90;99.90;;;;;;6221324;28;20419;-76
2021/06/29 03:34:29;;;;;;;11.48;10.43;;;17.90;99.90;;;;;;6221443;28;20050;-76
2021/06/29 03:37:32;;;;;;;14.75;11.15;;;17.90;99.90;;;;;;6221425;28;20565;-76
2021/06/29 03:40:34;;;;;;;18.10;11.57;;;18.00;99.90;;;;;;6221216;28;20089;-76
2021/06/29 03:43:38;;;;;;;10.90;9.77;;;18.00;99.90;;;;;;6221280;28;20511;-76
2021/06/29 03:46:39;;;;;;;12.27;10.80;;;18.00;99.90;;;;;;6220996;28;20124;-76
2021/06/29 03:49:41;;;;;;;10.27;9.30;;;18.00;99.90;;;;;;6221850;28;20200;-76
2021/06/29 03:52:44;;;;;;;12.73;10.23;;;17.90;99.90;;;;;;6221229;28;20574;-76
2021/06/29 03:55:46;;;;;;;10.27;9.23;;;18.00;99.90;;;;;;6221285;28;20073;-76
2021/06/29 03:58:48;;;;;;;8.68;7.88;;;18.00;99.90;;;;;;6221106;28;20071;-76
2021/06/29 04:01:50;;;;;;;9.05;8.15;;;18.00;99.90;;;;;;6221030;28;20097;-76
2021/06/29 04:04:52;;;;;;;10.90;8.80;;;17.90;99.90;;;;;;6221572;28;20177;-76
2021/06/29 04:07:55;;;;;;;9.48;7.85;;;17.90;99.90;;;;;;6220647;28;20462;-76
2021/06/29 04:10:57;;;;;;;13.85;7.97;;;18.00;99.90;;;;;;6220897;28;20180;-76
2021/06/29 04:13:59;;;;;;;6.75;6.10;;;18.00;99.90;;;;;;6224366;28;20137;-76
2021/06/29 04:17:01;;;;;;;9.18;6.82;;;18.00;99.90;;;;;;6225439;28;20638;-76
2021/06/29 04:20:04;;;;;;;6.93;6.28;;;17.90;99.90;;;;;;6225091;28;20516;-76
2021/06/29 04:23:07;;;;;;;8.95;8.05;;;17.90;99.90;;;;;;6225244;28;20176;-76
2021/06/29 04:26:09;;;;;;;9.65;8.48;;;17.90;99.90;;;;;;6224778;28;20164;-76
2021/06/29 04:29:11;;;;;;;7.50;6.90;;;18.00;99.90;;;;;;6225471;28;20085;-76
2021/06/29 04:32:13;;;;;;;8.38;7.68;;;17.90;99.90;;;;;;6224740;28;20042;-76
2021/06/29 04:35:15;;;;;;;7.07;6.32;;;18.00;99.90;;;;;;6225091;28;20180;-76
2021/06/29 04:38:18;;;;;;;7.20;6.63;;;18.10;99.90;;;;;;6226065;28;20069;-75
2021/06/29 04:41:20;;;;;;;6.40;5.90;;;18.10;99.90;;;;;;6227534;28;20526;-76
2021/06/29 04:44:21;;;;;;;10.38;8.25;;;18.20;99.90;;;;;;6224587;28;20131;-76
2021/06/29 04:47:23;;;;;;;6.95;6.43;;;18.10;99.90;;;;;;6224187;28;20050;-76
2021/06/29 04:50:26;;;;;;;7.05;6.30;;;18.10;99.90;;;;;;6224150;28;20165;-76
2021/06/29 04:53:29;;;;;;;8.50;7.80;;;18.10;99.90;;;;;;6224560;28;20089;-76
2021/06/29 04:56:31;;;;;;;7.72;7.05;;;18.10;99.90;;;;;;6224077;28;20195;-76
2021/06/29 04:59:32;;;;;;;6.78;6.18;;;18.20;99.90;;;;;;6224657;28;20107;-76
2021/06/29 05:02:34;;;;;;;5.45;5.05;;;18.20;99.90;;;;;;6224384;28;20045;-76
2021/06/29 05:05:36;;;;;;;5.22;4.82;;;18.20;99.90;;;;;;6224698;28;20129;-76
2021/06/29 05:08:39;;;;;;;5.90;5.40;;;18.30;99.90;;;;;;6223637;28;20136;-76
2021/06/29 05:11:41;;;;;;;6.30;5.70;;;18.50;99.90;;;;;;6223734;28;20634;-76
2021/06/29 05:14:43;;;;;;;8.48;6.32;;;18.60;99.90;;;;;;6224022;28;20112;-76
2021/06/29 05:17:45;;;;;;;8.95;6.55;;;18.60;99.90;;;;;;6224073;28;20144;-76
2021/06/29 05:20:47;;;;;;;6.25;5.65;;;18.80;99.90;;;;;;6223966;28;20152;-76
2021/06/29 05:23:50;;;;;;;5.30;4.80;;;18.80;99.90;;;;;;6222535;28;20136;-76
2021/06/29 05:26:52;;;;;;;6.60;4.55;;;18.90;99.90;;;;;;6223562;28;20168;-76
2021/06/29 05:29:53;;;;;;;7.00;4.43;;;18.90;99.90;;;;;;6223309;28;20054;-76
2021/06/29 05:32:56;;;;;;;4.18;3.88;;;18.90;99.90;;;;;;6223697;28;20050;-77
2021/06/29 05:35:58;;;;;;;5.13;3.78;;;19.00;99.90;;;;;;6223397;28;20129;-76
2021/06/29 05:39:01;;;;;;;4.97;4.03;;;19.00;99.90;;;;;;6223312;28;20052;-77
2021/06/29 05:42:03;;;;;;;4.20;3.80;;;19.10;99.90;;;;;;6223603;28;20093;-77
2021/06/29 05:45:06;;;;;;;5.10;4.15;;;19.10;99.90;;;;;;6223682;28;20088;-76
2021/06/29 05:48:12;;;;;;;9.77;4.53;;;19.10;99.90;;;;;;6222903;28;20478;-76
2021/06/29 05:51:14;;;;;;;4.63;4.22;;;19.20;99.90;;;;;;6223063;28;20062;-76
2021/06/29 05:54:18;;;;;;;3.80;3.50;;;19.30;99.90;;;;;;6220030;28;20559;-77
2021/06/29 05:57:20;;;;;;;6.50;3.75;;;19.40;99.90;;;;;;6223282;28;20104;-77
2021/06/29 06:00:22;;;;;;;6.13;3.45;;;19.50;99.90;;;;;;6222528;28;20042;-77
2021/06/29 06:03:24;;;;;;;6.20;3.17;;;19.70;99.90;;;;;;6219864;28;20236;-76
2021/06/29 06:06:26;;;;;;;5.57;3.92;;;19.90;99.90;;;;;;6201682;28;20070;-77
2021/06/29 06:09:29;;;;;;;4.85;3.20;;;20.10;99.90;;;;;;6214589;28;20133;-76
2021/06/29 06:12:31;;;;;;;3.63;3.08;;;20.30;99.90;;;;;;6198054;28;20108;-76
2021/06/29 06:15:33;;;;;;;8.15;3.40;;;20.40;99.90;;;;;;6221305;28;20104;-76
2021/06/29 06:18:35;;;;;;;5.00;3.25;;;20.50;99.90;;;;;;6222171;28;20041;-75
2021/06/29 06:21:36;;;;;;;5.78;3.28;;;20.50;99.90;;;;;;6218775;28;20046;-75
2021/06/29 06:24:40;;;;;;;3.47;3.03;;;20.60;99.90;;;;;;6197929;28;20467;-75
2021/06/29 06:27:42;;;;;;;4.70;2.63;;;20.70;99.90;;;;;;6197925;28;20074;-76
2021/06/29 06:30:43;;;;;;;4.28;3.08;;;20.90;99.90;;;;;;6197831;28;20118;-75
2021/06/29 06:33:45;;;;;;;4.25;3.55;;;21.00;99.90;;;;;;6198126;28;20631;-76
2021/06/29 06:36:47;;;;;;;5.00;2.45;;;21.10;99.90;;;;;;6197375;28;20546;-76
2021/06/29 06:39:50;;;;;;;5.93;2.95;;;21.30;99.90;;;;;;6210494;28;20054;-75
2021/06/29 06:42:52;;;;;;;3.80;2.65;;;21.60;99.90;;;;;;6221976;28;20045;-74
2021/06/29 06:45:54;;;;;;;5.38;2.80;;;22.00;99.90;;;;;;6221699;28;20169;-74
2021/06/29 06:48:56;;;;;;;2.65;2.45;;;22.40;99.90;;;;;;6222329;28;20147;-74
2021/06/29 06:51:58;;;;;;;2.95;2.38;;;22.50;99.90;;;;;;6221648;28;20041;-74
2021/06/29 06:55:01;;;;;;;4.32;2.80;;;22.50;99.90;;;;;;6221839;28;20073;-74
2021/06/29 06:58:03;;;;;;;2.85;2.22;;;22.80;99.90;;;;;;6221407;28;20139;-75
2021/06/29 07:01:05;;;;;;;5.45;2.65;;;23.00;99.90;;;;;;6222183;28;20093;-74
2021/06/29 07:04:07;;;;;;;3.58;2.25;;;23.00;98.90;;;;;;6221388;28;20709;-74
2021/06/29 07:07:08;;;;;;;2.35;1.98;;;23.10;98.40;;;;;;6221392;28;20046;-74
2021/06/29 07:10:13;;;;;;;2.65;2.45;;;23.40;97.50;;;;;;6221366;28;20050;-74
2021/06/29 07:13:14;;;;;;;3.05;1.83;;;23.60;96.30;;;;;;6214676;28;20129;-76
2021/06/29 07:16:19;;;;;;;1.98;1.80;;;23.80;94.70;;;;;;6197028;28;20441;-74
2021/06/29 07:19:21;;;;;;;3.45;2.55;;;24.00;94.50;;;;;;6197030;28;20504;-74
2021/06/29 07:22:23;;;;;;;3.35;1.75;;;24.30;93.10;;;;;;6197078;28;20125;-74
2021/06/29 07:25:26;;;;;;;3.80;1.92;;;24.60;92.30;;;;;;6197176;28;20119;-74
2021/06/29 07:28:28;;;;;;;3.42;2.28;;;24.80;91.60;;;;;;6197085;28;20173;-75
2021/06/29 07:31:30;;;;;;;2.50;2.03;;;25.10;91.20;;;;;;6196829;28;20069;-74
2021/06/29 07:34:32;;;;;;;5.68;2.35;;;25.40;90.40;;;;;;6196977;28;20579;-74
2021/06/29 07:37:34;;;;;;;2.92;1.95;;;25.60;88.30;;;;;;6197030;28;20051;-74
2021/06/29 07:40:37;;;;;;;3.50;3.20;;;25.80;85.80;;;;;;6196919;28;20415;-75
2021/06/29 07:43:39;;;;;;;2.35;1.50;;;26.00;81.40;;;;;;6197066;28;20101;-74
2021/06/29 07:46:41;;;;;;;2.95;1.80;;;26.10;80.80;;;;;;6197139;28;20125;-74
2021/06/29 07:49:42;;;;;;;1.80;1.50;;;26.40;80.30;;;;;;6201955;28;20184;-74
2021/06/29 07:52:44;;;;;;;3.08;1.30;;;26.80;78.50;;;;;;6201270;28;20112;-74
2021/06/29 07:55:49;;;;;;;1.63;1.52;;;27.20;76.10;;;;;;6200948;28;20069;-74
2021/06/29 07:58:51;;;;;;;3.80;1.45;;;27.40;74.90;;;;;;6201252;28;20046;-74
2021/06/29 08:01:52;;;;;;;4.93;1.58;;;27.60;72.70;;;;;;6201043;28;20496;-74
2021/06/29 08:04:54;;;;;;;2.78;1.48;;;27.70;71.10;;;;;;6201626;28;20133;-74
2021/06/29 08:07:56;;;;;;;2.28;1.48;;;28.10;69.60;;;;;;6201012;28;20133;-74
2021/06/29 08:11:00;;;;;;;7.85;1.83;;;28.40;68.30;;;;;;6200896;28;20120;-74
2021/06/29 08:14:02;;;;;;;2.97;2.00;;;28.80;66.60;;;;;;6214618;28;20054;-74
2021/06/29 08:17:06;;;;;;;3.33;1.45;;;29.30;64.50;;;;;;6225252;28;20139;-75
2021/06/29 08:20:09;;;;;;;1.65;1.55;;;29.70;63.40;;;;;;6225166;28;20057;-74
2021/06/29 08:23:11;;;;;;;2.20;1.55;;;30.20;61.10;;;;;;6225199;28;20097;-75
2021/06/29 08:26:14;;;;;;;2.10;1.45;;;30.90;59.60;;;;;;6224821;28;20042;-74
2021/06/29 08:29:16;;;;;;;5.05;1.85;;;31.40;57.00;;;;;;6225108;28;20531;-74
2021/06/29 08:32:18;;;;;;;3.70;1.52;;;31.90;56.80;;;;;;6224709;28;20046;-74
2021/06/29 08:35:20;;;;;;;6.97;2.00;;;32.10;55.60;;;;;;6224794;28;20131;-74
2021/06/29 08:38:22;;;;;;;2.28;1.42;;;32.10;55.50;;;;;;6224520;28;20115;-74
2021/06/29 08:41:25;;;;;;;3.17;2.10;;;32.50;53.60;;;;;;6224893;28;20141;-74
2021/06/29 08:44:27;;;;;;;1.65;1.52;;;33.10;51.80;;;;;;6224399;28;20137;-74
2021/06/29 08:47:29;;;;;;;2.65;1.05;;;33.40;51.00;;;;;;6224417;28;20089;-74
2021/06/29 08:50:32;;;;;;;2.13;1.67;;;33.80;50.10;;;;;;6223337;28;20046;-74
2021/06/29 08:53:35;;;;;;;5.47;1.70;;;33.90;48.00;;;;;;6224910;28;20484;-74
2021/06/29 08:56:38;;;;;;;2.65;1.40;;;33.70;46.60;;;;;;6223647;28;20581;-74
2021/06/29 08:59:41;;;;;;;4.55;1.73;;;33.90;47.10;;;;;;6223883;28;20173;-74
2021/06/29 09:02:43;;;;;;;1.90;1.75;;;33.90;46.60;;;;;;6223836;28;20041;-75
2021/06/29 09:05:46;;;;;;;0.90;0.80;;;33.80;47.30;;;;;;6224536;28;20115;-76
2021/06/29 09:08:48;;;;;;;1.70;1.27;;;34.10;47.20;;;;;;6224368;28;20057;-75
2021/06/29 09:11:51;;;;;;;1.48;1.30;;;33.90;47.20;;;;;;6223917;28;20103;-75
2021/06/29 09:14:53;;;;;;;1.98;1.77;;;33.60;47.00;;;;;;6203559;28;20042;-75
2021/06/29 09:17:57;;;;;;;2.55;1.52;;;33.10;47.10;;;;;;6199309;28;20094;-75
2021/06/29 09:21:01;;;;;;;2.20;1.50;;;32.50;47.90;;;;;;6199909;28;20050;-75
2021/06/29 09:24:04;;;;;;;1.65;1.23;;;32.20;48.90;;;;;;6199232;28;20395;-75
2021/06/29 09:27:08;;;;;;;1.48;1.27;;;32.50;49.10;;;;;;6198834;28;20461;-75
2021/06/29 09:30:28;;;;;;;2.30;2.10;;;32.90;47.80;;;;;;6198983;28;20042;-75
2021/06/29 09:33:34;;;;;;;1.40;1.30;;;32.90;47.20;;;;;;6199853;28;20184;-75
2021/06/29 09:36:39;;;;;;;2.45;1.75;;;32.10;48.80;;;;;;6198654;28;20050;-75
2021/06/29 09:39:41;;;;;;;3.05;2.13;;;31.80;49.40;;;;;;6199173;28;20047;-76
2021/06/29 09:42:44;;;;;;;1.70;1.60;;;32.10;48.80;;;;;;6198100;28;20133;-76
2021/06/29 09:45:48;;;;;;;6.03;3.22;;;32.90;46.80;;;;;;6199028;28;20136;-76
2021/06/29 09:48:53;;;;;;;4.13;1.92;;;33.50;45.10;;;;;;6198930;28;20058;-76
2021/06/29 09:52:04;;;;;;;3.22;1.17;;;34.00;44.30;;;;;;6198649;28;20058;-76
2021/06/29 09:55:07;;;;;;;3.75;1.52;;;34.50;43.70;;;;;;6198757;28;20419;-75
2021/06/29 09:58:12;;;;;;;3.13;1.75;;;34.90;43.30;;;;;;6198651;28;20173;-76
2021/06/29 10:01:18;;;;;;;2.53;1.33;;;35.00;42.60;;;;;;6198296;28;20193;-77
2021/06/29 10:04:21;;;;;;;2.15;1.40;;;35.20;42.00;;;;;;6198457;28;20523;-76
2021/06/29 10:07:23;;;;;;;1.65;1.55;;;35.30;41.40;;;;;;6198266;28;20124;-76
2021/06/29 10:10:26;;;;;;;1.48;1.33;;;35.30;41.10;;;;;;6197618;28;20143;-76
2021/06/29 10:13:34;;;;;;;4.47;1.20;;;35.00;41.40;;;;;;6207250;28;20414;-76
2021/06/29 10:16:39;;;;;;;3.72;1.15;;;34.30;42.90;;;;;;6222098;28;20050;-76
2021/06/29 10:19:59;;;;;;;2.58;1.40;;;34.20;43.40;;;;;;6222625;28;20574;-76
2021/06/29 10:23:01;;;;;;;2.42;1.48;;;34.50;43.30;;;;;;6222575;28;20050;-76
2021/06/29 10:26:05;;;;;;;2.08;1.25;;;34.30;43.20;;;;;;6222172;28;20136;-77
2021/06/29 10:29:09;;;;;;;2.50;1.33;;;34.00;43.40;;;;;;6222823;28;20067;-77
2021/06/29 10:32:13;;;;;;;6.68;1.70;;;33.30;44.10;;;;;;6222024;28;20184;-76
2021/06/29 10:35:16;;;;;;;3.40;1.80;;;32.50;46.00;;;;;;6222020;28;20062;-76
2021/06/29 10:38:18;;;;;;;1.45;1.25;;;32.10;47.10;;;;;;6221900;28;20121;-75
2021/06/29 10:41:22;;;;;;;2.75;1.60;;;32.60;46.30;;;;;;6222391;28;20140;-76
2021/06/29 10:44:28;;;;;;;3.53;1.23;;;33.20;46.60;;;;;;6222020;28;20103;-75
2021/06/29 10:47:32;;;;;;;2.83;1.95;;;32.90;45.80;;;;;;6221639;28;20172;-75
2021/06/29 10:50:36;;;;;;;3.22;1.70;;;32.60;45.60;;;;;;6222133;28;20065;-76
2021/06/29 10:53:40;;;;;;;1.98;1.38;;;32.30;46.50;;;;;;6222092;28;20565;-76
2021/06/29 10:56:53;;;;;;;3.90;1.50;;;31.80;47.80;;;;;;6221442;28;20069;-76
2021/06/29 10:59:58;;;;;;;1.88;1.25;;;31.50;48.40;;;;;;6221782;28;20050;-75
2021/06/29 11:03:02;;;;;;;1.98;1.40;;;31.30;48.50;;;;;;6246409;22;20172;-76
2021/06/29 11:06:04;;;;;;;1.40;1.30;;;31.20;49.30;;;;;;6221815;28;20135;-77
2021/06/29 11:09:06;;;;;;;4.72;2.13;;;31.20;48.50;;;;;;6222926;28;20104;-77
2021/06/29 11:12:23;;;;;;;4.90;1.98;;;31.20;49.20;;;;;;6222069;28;20120;-77
2021/06/29 11:15:57;;;;;;;3.67;1.83;;;31.10;48.70;;;;;;6197751;28;20086;-77
2021/06/29 11:18:59;;;;;;;2.50;1.73;;;30.90;48.90;;;;;;6147272;28;20175;-77
2021/06/29 11:22:01;;;;;;;1.52;1.20;;;30.60;49.90;;;;;;6200113;28;20057;-77
2021/06/29 11:25:05;;;;;;;1.33;1.13;;;30.60;50.20;;;;;;6202994;28;20096;-77
2021/06/29 11:28:10;;;;;;;1.95;1.33;;;30.60;49.60;;;;;;6202534;28;20054;-76
2021/06/29 11:31:26;;;;;;;4.18;1.50;;;30.30;50.60;;;;;;6202474;28;20181;-76
2021/06/29 11:34:28;;;;;;;1.45;1.35;;;30.00;51.10;;;;;;6202522;28;20055;-76
2021/06/29 11:38:04;;;;;;;2.95;1.60;;;29.70;49.80;;;;;;6202675;28;20085;-77
2021/06/29 11:41:27;;;;;;;2.22;1.25;;;29.40;50.40;;;;;;6202638;28;20476;-78
2021/06/29 11:44:49;;;;;;;1.92;1.13;;;29.00;50.90;;;;;;6202077;28;20046;-77
2021/06/29 11:47:53;;;;;;;4.05;1.25;;;28.60;52.30;;;;;;6201945;28;20484;-77
2021/06/29 11:50:54;;;;;;;2.75;1.23;;;28.20;54.30;;;;;;6201936;28;20599;-76
2021/06/29 11:53:56;;;;;;;2.13;1.55;;;27.80;56.10;;;;;;6202004;28;20798;-77
2021/06/29 11:57:02;;;;;;;1.40;1.30;;;27.40;58.60;;;;;;6202125;28;20148;-77
2021/06/29 12:00:16;;;;;;;3.03;1.65;;;27.10;60.50;;;;;;6201594;28;20185;-77
2021/06/29 12:03:20;;;;;;;2.15;1.75;;;26.80;59.50;;;;;;6201885;28;20181;-77
2021/06/29 12:06:22;;;;;;;6.60;1.63;;;26.40;64.30;;;;;;6200867;28;20068;-77
2021/06/29 12:09:29;;;;;;;15.13;1.92;;;25.50;63.10;;;;;;6202822;28;20050;-77
2021/06/29 12:12:31;;;;;;;7.93;2.50;;;25.10;66.10;;;;;;6203364;28;20047;-76
2021/06/29 12:15:34;;;;;;;21.30;3.75;;;23.80;72.50;;;;;;6250675;28;20594;-78
2021/06/29 12:18:47;;;;;;;30.33;4.07;;;22.00;79.00;;;;;;6253485;28;20042;-78
2021/06/29 12:21:49;;;;;;;12.27;3.40;;;20.50;86.60;;;;;;6240993;28;20505;-79
2021/06/29 12:24:51;;;;;;;10.68;3.65;;;19.40;91.70;;;;;;6232222;28;20049;-79
2021/06/29 12:27:54;;;;;;;11.23;3.83;;;18.70;98.30;;;;;;6230320;28;20050;-79
2021/06/29 12:30:57;;;;;;;7.47;4.45;;;18.10;99.90;;;;;;6229375;28;20050;-78
2021/06/29 12:34:00;;;;;;;6.07;4.57;;;17.90;99.90;;;;;;6226379;28;20129;-77
2021/06/29 12:37:05;;;;;;;4.32;3.72;;;17.60;99.90;;;;;;6225696;28;20054;-78
2021/06/29 12:40:08;;;;;;;5.93;3.97;;;17.50;99.90;;;;;;6224523;28;20671;-78
2021/06/29 12:43:26;;;;;;;8.10;4.03;;;17.50;99.90;;;;;;6224334;28;20181;-77
2021/06/29 12:46:30;;;;;;;4.35;3.33;;;17.50;99.90;;;;;;6223875;28;20426;-76
2021/06/29 12:49:33;;;;;;;4.18;2.33;;;17.40;99.90;;;;;;6227162;28;20455;-78
2021/06/29 12:52:35;;;;;;;3.78;2.83;;;17.30;99.90;;;;;;6229120;28;20050;-78
2021/06/29 12:55:37;;;;;;;3.45;2.40;;;17.20;99.90;;;;;;6230168;28;20144;-77
2021/06/29 12:58:39;;;;;;;3.33;2.45;;;17.10;99.90;;;;;;6228449;28;20124;-76
2021/06/29 13:01:42;;;;;;;6.22;2.67;;;17.00;99.90;;;;;;6234426;28;20075;-79
2021/06/29 13:04:47;;;;;;;3.33;3.03;;;16.90;99.90;;;;;;6237542;28;20096;-78
2021/06/29 13:07:49;;;;;;;3.35;3.15;;;16.90;99.90;;;;;;6238026;28;20042;-78
2021/06/29 13:10:51;;;;;;;4.13;2.88;;;16.90;99.90;;;;;;6236923;28;20042;-76
2021/06/29 13:14:01;;;;;;;3.42;2.47;;;16.80;99.90;;;;;;6242096;28;20104;-77
2021/06/29 13:17:04;;;;;;;4.20;2.72;;;16.90;99.90;;;;;;6252592;28;20051;-75
2021/06/29 13:20:11;;;;;;;8.05;3.78;;;16.90;99.90;;;;;;6250489;28;20132;-77
2021/06/29 13:23:13;;;;;;;6.40;3.10;;;17.10;99.90;;;;;;6243705;28;20076;-78
2021/06/29 13:26:17;;;;;;;6.55;3.22;;;17.10;99.90;;;;;;6235116;28;20116;-78
2021/06/29 13:29:21;;;;;;;4.75;3.40;;;17.10;99.90;;;;;;6237763;28;20096;-79
2021/06/29 13:32:23;;;;;;;5.10;4.07;;;17.10;99.90;;;;;;6228979;28;20042;-78
2021/06/29 13:35:26;;;;;;;3.35;2.53;;;17.10;99.90;;;;;;6231571;28;20046;-78
2021/06/29 13:38:28;;;;;;;3.17;2.88;;;17.10;99.90;;;;;;6233196;28;20057;-78
2021/06/29 13:41:35;;;;;;;5.35;3.30;;;17.00;99.90;;;;;;6226777;28;20128;-78
2021/06/29 13:44:37;;;;;;;4.55;2.83;;;17.00;99.90;;;;;;6227593;28;20077;-77
2021/06/29 13:47:53;;;;;;;5.38;3.65;;;17.00;99.90;;;;;;6228165;28;20184;-77
2021/06/29 13:50:58;;;;;;;5.82;3.65;;;17.00;99.90;;;;;;6229006;28;20131;-78
2021/06/29 13:54:14;;;;;;;5.10;3.33;;;16.90;99.90;;;;;;6225796;28;20096;-78
2021/06/29 13:57:21;;;;;;;7.97;3.40;;;16.90;99.90;;;;;;6226116;28;20119;-77
2021/06/29 14:00:26;;;;;;;5.43;3.35;;;16.80;99.90;;;;;;6223366;28;20057;-78
2021/06/29 14:03:29;;;;;;;7.88;3.70;;;16.80;99.90;;;;;;6223577;28;20511;-78
2021/06/29 14:06:39;;;;;;;8.43;3.35;;;16.80;99.90;;;;;;6309821;27;20395;-77
2021/06/29 14:09:41;;;;;;;5.82;2.83;;;16.80;99.90;;;;;;6292374;28;20486;-77
2021/06/29 14:12:42;;;;;;;7.10;4.63;;;16.90;99.90;;;;;;6292084;28;20045;-77
2021/06/29 14:15:44;;;;;;;9.15;4.22;;;16.90;99.90;;;;;;6291842;28;20201;-77
2021/06/29 14:18:47;;;;;;;4.68;3.70;;;16.90;99.90;;;;;;6292043;28;20506;-76
2021/06/29 14:21:50;;;;;;;3.30;3.00;;;16.80;99.90;;;;;;6291410;28;20044;-77
2021/06/29 14:24:52;;;;;;;5.70;2.65;;;16.80;99.90;;;;;;6274592;28;20538;-76
2021/06/29 14:27:54;;;;;;;8.40;3.33;;;16.80;99.90;;;;;;6250364;28;20073;-77
2021/06/29 14:30:56;;;;;;;3.10;2.80;;;16.80;99.90;;;;;;6242442;28;20167;-76
2021/06/29 14:33:58;;;;;;;3.15;2.08;;;16.70;99.90;;;;;;6246614;28;20065;-76
2021/06/29 14:37:01;;;;;;;3.28;2.67;;;16.70;99.90;;;;;;6242244;28;20132;-77
2021/06/29 14:40:03;;;;;;;4.75;2.65;;;16.60;99.90;;;;;;6242351;28;20081;-76
2021/06/29 14:43:08;;;;;;;5.15;2.67;;;16.60;99.90;;;;;;6241919;28;20188;-77
2021/06/29 14:46:10;;;;;;;3.03;2.55;;;16.70;99.90;;;;;;6241248;28;20053;-76
2021/06/29 14:49:12;;;;;;;3.35;2.63;;;16.70;99.90;;;;;;6242120;28;20057;-77
2021/06/29 14:52:15;;;;;;;3.17;2.65;;;16.70;99.90;;;;;;6241845;28;20048;-76
2021/06/29 14:55:17;;;;;;;5.32;2.83;;;16.60;99.90;;;;;;6241795;28;20042;-75
2021/06/29 14:58:19;;;;;;;7.07;3.30;;;16.60;99.90;;;;;;6241705;28;20046;-76
2021/06/29 15:01:21;;;;;;;4.15;2.75;;;16.80;99.90;;;;;;6242060;28;20083;-76
2021/06/29 15:04:25;;;;;;;2.67;2.42;;;16.80;99.90;;;;;;6241757;28;20177;-77
2021/06/29 15:07:28;;;;;;;3.22;2.83;;;16.70;99.90;;;;;;6241292;28;20061;-77
2021/06/29 15:10:30;;;;;;;3.95;2.35;;;16.70;99.90;;;;;;6241980;28;20050;-76
2021/06/29 15:13:32;;;;;;;4.07;3.08;;;16.60;99.90;;;;;;6251402;28;20053;-77
2021/06/29 15:16:34;;;;;;;6.32;2.42;;;16.60;99.90;;;;;;6257426;28;20042;-77
2021/06/29 15:19:36;;;;;;;6.80;3.35;;;16.70;99.90;;;;;;6249679;28;20063;-77
2021/06/29 15:22:39;;;;;;;4.75;3.03;;;16.80;99.90;;;;;;6249142;28;20124;-77
2021/06/29 15:25:41;;;;;;;3.88;2.45;;;17.00;99.90;;;;;;6247132;28;20505;-76
2021/06/29 15:28:43;;;;;;;2.75;2.00;;;17.10;99.90;;;;;;6224371;28;20094;-76
2021/06/29 15:31:45;;;;;;;6.03;2.75;;;17.20;99.90;;;;;;6224593;28;20093;-77
2021/06/29 15:34:47;;;;;;;2.92;2.22;;;17.30;99.90;;;;;;6225127;28;20121;-76
2021/06/29 15:37:50;;;;;;;6.85;2.47;;;17.40;99.90;;;;;;6224366;28;20133;-77
2021/06/29 15:40:52;;;;;;;4.38;2.92;;;17.50;99.90;;;;;;6225148;28;20202;-77
2021/06/29 15:43:54;;;;;;;2.25;2.05;;;17.70;99.90;;;;;;6224715;28;20073;-77
2021/06/29 15:46:57;;;;;;;2.70;1.92;;;17.70;99.90;;;;;;6224147;28;20105;-77
2021/06/29 15:49:59;;;;;;;2.05;1.85;;;17.80;99.90;;;;;;6224743;28;20072;-77